sensor_id;sensor_type;location;lat;lon;timestamp;temperature;humidity
45339;DHT22;31071;51.478;5.710;2023-02-26T00:02:21;0.00;99.90
45339;DHT22;31071;51.478;5.710;2023-02-26T00:04:47;0.00;99.90
45339;DHT22;31071;51.478;5.710;2023-02-26T00:07:12;0.00;99.90
45339;DHT22;31071;51.478;5.710;2023-02-26T00:09:38;0.00;99.90
45339;DHT22;31071;51.478;5.710;2023-02-26T00:12:03;-0.10;99.90
45339;DHT22;31071;51.478;5.710;2023-02-26T00:14:29;0.00;99.90
45339;DHT22;31071;51.478;5.710;2023-02-26T00:17:06;-0.10;99.90
45339;DHT22;31071;51.478;5.710;2023-02-26T00:19:37;-0.10;99.90
45339;DHT22;31071;51.478;5.710;2023-02-26T00:22:03;-0.10;99.90
45339;DHT22;31071;51.478;5.710;2023-02-26T00:24:28;-0.10;99.90
45339;DHT22;31071;51.478;5.710;2023-02-26T00:26:54;-0.10;99.90
45339;DHT22;31071;51.478;5.710;2023-02-26T00:29:19;0.00;99.90
45339;DHT22;31071;51.478;5.710;2023-02-26T00:31:45;0.00;99.90
45339;DHT22;31071;51.478;5.710;2023-02-26T00:34:11;0.00;99.90
45339;DHT22;31071;51.478;5.710;2023-02-26T00:36:51;0.00;99.90
45339;DHT22;31071;51.478;5.710;2023-02-26T00:41:55;0.10;99.90
45339;DHT22;31071;51.478;5.710;2023-02-26T00:44:21;0.10;99.90
45339;DHT22;31071;51.478;5.710;2023-02-26T00:46:48;0.10;99.90
45339;DHT22;31071;51.478;5.710;2023-02-26T00:49:26;0.10;99.90
45339;DHT22;31071;51.478;5.710;2023-02-26T00:52:00;0.20;99.90
45339;DHT22;31071;51.478;5.710;2023-02-26T00:54:27;0.20;99.90
45339;DHT22;31071;51.478;5.710;2023-02-26T00:56:54;0.20;99.90
45339;DHT22;31071;51.478;5.710;2023-02-26T00:59:20;0.10;99.90
45339;DHT22;31071;51.478;5.710;2023-02-26T01:01:46;0.10;99.90
45339;DHT22;31071;51.478;5.710;2023-02-26T01:04:13;0.00;99.90
45339;DHT22;31071;51.478;5.710;2023-02-26T01:06:41;-0.10;99.90
45339;DHT22;31071;51.478;5.710;2023-02-26T01:09:10;0.00;99.90
45339;DHT22;31071;51.478;5.710;2023-02-26T01:11:38;0.10;99.90
45339;DHT22;31071;51.478;5.710;2023-02-26T01:14:03;0.00;99.90
45339;DHT22;31071;51.478;5.710;2023-02-26T01:16:30;0.00;99.90
45339;DHT22;31071;51.478;5.710;2023-02-26T01:19:17;0.00;99.90
45339;DHT22;31071;51.478;5.710;2023-02-26T01:21:45;0.10;99.90
45339;DHT22;31071;51.478;5.710;2023-02-26T01:24:14;0.20;99.90
45339;DHT22;31071;51.478;5.710;2023-02-26T01:26:39;0.20;99.90
45339;DHT22;31071;51.478;5.710;2023-02-26T01:29:05;0.30;99.90
45339;DHT22;31071;51.478;5.710;2023-02-26T01:31:33;0.30;99.90
45339;DHT22;31071;51.478;5.710;2023-02-26T01:34:04;0.40;99.90
45339;DHT22;31071;51.478;5.710;2023-02-26T01:36:35;0.30;99.90
45339;DHT22;31071;51.478;5.710;2023-02-26T01:39:24;0.30;99.90
45339;DHT22;31071;51.478;5.710;2023-02-26T01:41:53;0.30;99.90
45339;DHT22;31071;51.478;5.710;2023-02-26T01:49:19;0.20;99.90
45339;DHT22;31071;51.478;5.710;2023-02-26T01:54:10;0.00;99.90
45339;DHT22;31071;51.478;5.710;2023-02-26T01:56:36;0.00;99.90
45339;DHT22;31071;51.478;5.710;2023-02-26T01:59:03;-0.10;99.90
45339;DHT22;31071;51.478;5.710;2023-02-26T02:01:34;-0.10;99.90
45339;DHT22;31071;51.478;5.710;2023-02-26T02:04:01;-0.20;99.90
45339;DHT22;31071;51.478;5.710;2023-02-26T02:06:27;-0.30;99.90
45339;DHT22;31071;51.478;5.710;2023-02-26T02:08:54;-0.30;99.90
45339;DHT22;31071;51.478;5.710;2023-02-26T02:11:19;-0.20;99.90
45339;DHT22;31071;51.478;5.710;2023-02-26T02:13:58;-0.40;99.90
45339;DHT22;31071;51.478;5.710;2023-02-26T02:19:07;-0.50;99.90
45339;DHT22;31071;51.478;5.710;2023-02-26T02:27:02;-0.70;99.90
45339;DHT22;31071;51.478;5.710;2023-02-26T02:29:32;-0.70;99.90
45339;DHT22;31071;51.478;5.710;2023-02-26T02:32:05;-0.80;99.90
45339;DHT22;31071;51.478;5.710;2023-02-26T02:37:04;-0.90;99.90
45339;DHT22;31071;51.478;5.710;2023-02-26T02:39:32;-0.90;99.90
45339;DHT22;31071;51.478;5.710;2023-02-26T02:42:06;-0.90;99.90
45339;DHT22;31071;51.478;5.710;2023-02-26T02:44:34;-0.90;99.90
45339;DHT22;31071;51.478;5.710;2023-02-26T02:47:00;-0.90;99.90
45339;DHT22;31071;51.478;5.710;2023-02-26T02:49:28;-0.90;99.90
45339;DHT22;31071;51.478;5.710;2023-02-26T02:51:57;-0.80;99.90
45339;DHT22;31071;51.478;5.710;2023-02-26T02:54:30;-0.80;99.90
45339;DHT22;31071;51.478;5.710;2023-02-26T02:57:05;-0.70;99.90
45339;DHT22;31071;51.478;5.710;2023-02-26T02:59:34;-0.60;99.90
45339;DHT22;31071;51.478;5.710;2023-02-26T03:02:06;-0.60;99.90
45339;DHT22;31071;51.478;5.710;2023-02-26T03:04:34;-0.60;99.90
45339;DHT22;31071;51.478;5.710;2023-02-26T03:07:00;-0.60;99.90
45339;DHT22;31071;51.478;5.710;2023-02-26T03:09:25;-0.60;99.90
45339;DHT22;31071;51.478;5.710;2023-02-26T03:11:51;-0.50;99.90
45339;DHT22;31071;51.478;5.710;2023-02-26T03:14:16;-0.50;99.90
45339;DHT22;31071;51.478;5.710;2023-02-26T03:19:19;-0.60;99.90
45339;DHT22;31071;51.478;5.710;2023-02-26T03:21:48;-0.60;99.90
45339;DHT22;31071;51.478;5.710;2023-02-26T03:26:45;-0.50;99.90
45339;DHT22;31071;51.478;5.710;2023-02-26T03:32:01;-0.60;99.90
45339;DHT22;31071;51.478;5.710;2023-02-26T03:34:34;-0.60;99.90
45339;DHT22;31071;51.478;5.710;2023-02-26T03:37:06;-0.60;99.90
45339;DHT22;31071;51.478;5.710;2023-02-26T03:39:35;-0.60;99.90
45339;DHT22;31071;51.478;5.710;2023-02-26T03:46:56;-0.60;99.90
45339;DHT22;31071;51.478;5.710;2023-02-26T03:49:28;-0.70;99.90
45339;DHT22;31071;51.478;5.710;2023-02-26T03:51:56;-0.70;99.90
45339;DHT22;31071;51.478;5.710;2023-02-26T03:54:28;-0.20;99.90
45339;DHT22;31071;51.478;5.710;2023-02-26T03:56:54;-0.80;99.90
45339;DHT22;31071;51.478;5.710;2023-02-26T03:59:20;-0.80;99.90
45339;DHT22;31071;51.478;5.710;2023-02-26T04:04:16;-0.80;99.90
45339;DHT22;31071;51.478;5.710;2023-02-26T04:06:43;-0.80;99.90
45339;DHT22;31071;51.478;5.710;2023-02-26T04:09:08;-0.90;99.90
45339;DHT22;31071;51.478;5.710;2023-02-26T04:11:34;-0.90;99.90
45339;DHT22;31071;51.478;5.710;2023-02-26T04:14:00;-0.80;99.90
45339;DHT22;31071;51.478;5.710;2023-02-26T04:16:26;-0.90;99.90
45339;DHT22;31071;51.478;5.710;2023-02-26T04:18:51;-0.90;99.90
45339;DHT22;31071;51.478;5.710;2023-02-26T04:21:18;-0.90;99.90
45339;DHT22;31071;51.478;5.710;2023-02-26T04:23:44;-0.70;99.90
45339;DHT22;31071;51.478;5.710;2023-02-26T04:26:09;-0.50;99.90
45339;DHT22;31071;51.478;5.710;2023-02-26T04:28:35;-1.10;99.90
45339;DHT22;31071;51.478;5.710;2023-02-26T04:31:02;-1.10;99.90
45339;DHT22;31071;51.478;5.710;2023-02-26T04:33:28;-1.20;99.90
45339;DHT22;31071;51.478;5.710;2023-02-26T04:35:54;-1.20;99.90
45339;DHT22;31071;51.478;5.710;2023-02-26T04:38:19;-1.20;99.90
45339;DHT22;31071;51.478;5.710;2023-02-26T04:40:45;-1.20;99.90
45339;DHT22;31071;51.478;5.710;2023-02-26T04:43:11;-1.20;99.90
45339;DHT22;31071;51.478;5.710;2023-02-26T04:45:36;-1.10;99.90
45339;DHT22;31071;51.478;5.710;2023-02-26T04:48:02;-1.10;99.90
45339;DHT22;31071;51.478;5.710;2023-02-26T04:50:27;-1.20;99.90
45339;DHT22;31071;51.478;5.710;2023-02-26T04:52:53;-1.20;99.90
45339;DHT22;31071;51.478;5.710;2023-02-26T04:55:18;-1.20;99.90
45339;DHT22;31071;51.478;5.710;2023-02-26T04:57:43;-1.10;99.90
45339;DHT22;31071;51.478;5.710;2023-02-26T05:00:09;-1.20;99.90
45339;DHT22;31071;51.478;5.710;2023-02-26T05:02:35;-1.20;99.90
45339;DHT22;31071;51.478;5.710;2023-02-26T05:05:00;-1.20;99.90
45339;DHT22;31071;51.478;5.710;2023-02-26T05:07:26;-1.20;99.90
45339;DHT22;31071;51.478;5.710;2023-02-26T05:09:51;-1.00;99.90
45339;DHT22;31071;51.478;5.710;2023-02-26T05:12:17;-1.30;99.90
45339;DHT22;31071;51.478;5.710;2023-02-26T05:14:42;-1.20;99.90
45339;DHT22;31071;51.478;5.710;2023-02-26T05:17:08;-1.20;99.90
45339;DHT22;31071;51.478;5.710;2023-02-26T05:19:33;-1.10;99.90
45339;DHT22;31071;51.478;5.710;2023-02-26T05:21:58;-1.10;99.90
45339;DHT22;31071;51.478;5.710;2023-02-26T05:24:24;-1.10;99.90
45339;DHT22;31071;51.478;5.710;2023-02-26T05:26:49;-1.20;99.90
45339;DHT22;31071;51.478;5.710;2023-02-26T05:29:15;-1.10;99.90
45339;DHT22;31071;51.478;5.710;2023-02-26T05:31:40;-0.60;99.90
45339;DHT22;31071;51.478;5.710;2023-02-26T05:34:06;-1.20;99.90
45339;DHT22;31071;51.478;5.710;2023-02-26T05:36:32;-1.20;99.90
45339;DHT22;31071;51.478;5.710;2023-02-26T05:38:57;-1.10;99.90
45339;DHT22;31071;51.478;5.710;2023-02-26T05:41:23;-0.30;99.90
45339;DHT22;31071;51.478;5.710;2023-02-26T05:43:49;-1.20;99.90
45339;DHT22;31071;51.478;5.710;2023-02-26T05:46:14;-1.10;99.90
45339;DHT22;31071;51.478;5.710;2023-02-26T05:48:40;-0.80;99.90
45339;DHT22;31071;51.478;5.710;2023-02-26T05:51:05;-1.10;99.90
45339;DHT22;31071;51.478;5.710;2023-02-26T05:53:31;-1.20;99.90
45339;DHT22;31071;51.478;5.710;2023-02-26T05:55:56;-1.20;99.90
45339;DHT22;31071;51.478;5.710;2023-02-26T05:58:21;-0.90;99.90
45339;DHT22;31071;51.478;5.710;2023-02-26T06:00:47;-0.80;99.90
45339;DHT22;31071;51.478;5.710;2023-02-26T06:03:13;-0.60;99.90
45339;DHT22;31071;51.478;5.710;2023-02-26T06:05:38;-1.00;99.90
45339;DHT22;31071;51.478;5.710;2023-02-26T06:08:04;-1.20;99.90
45339;DHT22;31071;51.478;5.710;2023-02-26T06:10:30;-0.60;99.90
45339;DHT22;31071;51.478;5.710;2023-02-26T06:12:55;-0.80;99.90
45339;DHT22;31071;51.478;5.710;2023-02-26T06:15:20;-1.20;99.90
45339;DHT22;31071;51.478;5.710;2023-02-26T06:17:46;-0.90;99.90
45339;DHT22;31071;51.478;5.710;2023-02-26T06:20:11;-1.30;99.90
45339;DHT22;31071;51.478;5.710;2023-02-26T06:22:37;-1.30;99.90
45339;DHT22;31071;51.478;5.710;2023-02-26T06:25:03;-0.60;99.90
45339;DHT22;31071;51.478;5.710;2023-02-26T06:27:30;-1.30;99.90
45339;DHT22;31071;51.478;5.710;2023-02-26T06:29:55;-1.30;99.90
45339;DHT22;31071;51.478;5.710;2023-02-26T06:32:21;-1.00;99.90
45339;DHT22;31071;51.478;5.710;2023-02-26T06:34:46;-1.40;99.90
45339;DHT22;31071;51.478;5.710;2023-02-26T06:37:12;-1.40;99.90
45339;DHT22;31071;51.478;5.710;2023-02-26T06:39:37;-1.30;99.90
45339;DHT22;31071;51.478;5.710;2023-02-26T06:42:02;-1.30;99.90
45339;DHT22;31071;51.478;5.710;2023-02-26T06:44:29;-1.30;99.90
45339;DHT22;31071;51.478;5.710;2023-02-26T06:46:54;-1.30;99.90
45339;DHT22;31071;51.478;5.710;2023-02-26T06:49:21;-1.30;99.90
45339;DHT22;31071;51.478;5.710;2023-02-26T06:51:47;-1.30;99.90
45339;DHT22;31071;51.478;5.710;2023-02-26T06:54:12;-1.40;99.90
45339;DHT22;31071;51.478;5.710;2023-02-26T06:56:37;-1.30;99.90
45339;DHT22;31071;51.478;5.710;2023-02-26T06:59:03;-0.80;99.90
45339;DHT22;31071;51.478;5.710;2023-02-26T07:01:28;-1.20;99.90
45339;DHT22;31071;51.478;5.710;2023-02-26T07:03:56;-1.20;99.90
45339;DHT22;31071;51.478;5.710;2023-02-26T07:06:21;-1.20;99.90
45339;DHT22;31071;51.478;5.710;2023-02-26T07:08:47;-1.20;99.90
45339;DHT22;31071;51.478;5.710;2023-02-26T07:11:12;-1.10;99.90
45339;DHT22;31071;51.478;5.710;2023-02-26T07:13:38;-1.10;99.90
45339;DHT22;31071;51.478;5.710;2023-02-26T07:16:04;-0.70;99.90
45339;DHT22;31071;51.478;5.710;2023-02-26T07:18:37;-1.00;99.90
45339;DHT22;31071;51.478;5.710;2023-02-26T07:21:03;-0.80;99.90
45339;DHT22;31071;51.478;5.710;2023-02-26T07:23:29;-0.40;99.90
45339;DHT22;31071;51.478;5.710;2023-02-26T07:25:54;0.10;99.90
45339;DHT22;31071;51.478;5.710;2023-02-26T07:28:21;0.60;99.90
45339;DHT22;31071;51.478;5.710;2023-02-26T07:30:46;1.00;99.90
45339;DHT22;31071;51.478;5.710;2023-02-26T07:33:12;1.00;99.90
45339;DHT22;31071;51.478;5.710;2023-02-26T07:35:37;1.40;99.90
45339;DHT22;31071;51.478;5.710;2023-02-26T07:38:03;1.70;99.90
45339;DHT22;31071;51.478;5.710;2023-02-26T07:40:29;1.90;99.40
45339;DHT22;31071;51.478;5.710;2023-02-26T07:42:54;2.00;99.40
45339;DHT22;31071;51.478;5.710;2023-02-26T07:45:20;1.80;99.30
45339;DHT22;31071;51.478;5.710;2023-02-26T07:47:47;1.60;99.80
45339;DHT22;31071;51.478;5.710;2023-02-26T07:50:12;1.60;99.70
45339;DHT22;31071;51.478;5.710;2023-02-26T07:52:38;1.60;99.70
45339;DHT22;31071;51.478;5.710;2023-02-26T07:55:03;1.60;99.90
45339;DHT22;31071;51.478;5.710;2023-02-26T07:57:29;1.40;99.90
45339;DHT22;31071;51.478;5.710;2023-02-26T07:59:54;1.40;99.90
45339;DHT22;31071;51.478;5.710;2023-02-26T08:02:20;1.40;99.90
45339;DHT22;31071;51.478;5.710;2023-02-26T08:04:47;1.50;99.90
45339;DHT22;31071;51.478;5.710;2023-02-26T08:07:13;2.40;99.90
45339;DHT22;31071;51.478;5.710;2023-02-26T08:09:38;1.80;99.90
45339;DHT22;31071;51.478;5.710;2023-02-26T08:12:04;1.80;99.50
45339;DHT22;31071;51.478;5.710;2023-02-26T08:14:29;2.00;99.90
45339;DHT22;31071;51.478;5.710;2023-02-26T08:16:55;2.30;99.40
45339;DHT22;31071;51.478;5.710;2023-02-26T08:19:20;2.10;98.70
45339;DHT22;31071;51.478;5.710;2023-02-26T08:21:45;1.80;99.30
45339;DHT22;31071;51.478;5.710;2023-02-26T08:24:11;1.70;99.90
45339;DHT22;31071;51.478;5.710;2023-02-26T08:26:36;1.70;99.90
45339;DHT22;31071;51.478;5.710;2023-02-26T08:29:02;1.90;99.90
45339;DHT22;31071;51.478;5.710;2023-02-26T08:31:28;1.90;99.00
45339;DHT22;31071;51.478;5.710;2023-02-26T08:33:53;2.60;99.90
45339;DHT22;31071;51.478;5.710;2023-02-26T08:36:19;2.80;98.60
45339;DHT22;31071;51.478;5.710;2023-02-26T08:38:46;3.10;97.80
45339;DHT22;31071;51.478;5.710;2023-02-26T08:41:11;3.70;97.30
45339;DHT22;31071;51.478;5.710;2023-02-26T08:43:37;4.10;95.70
45339;DHT22;31071;51.478;5.710;2023-02-26T08:46:02;4.00;95.00
45339;DHT22;31071;51.478;5.710;2023-02-26T08:48:28;4.20;93.70
45339;DHT22;31071;51.478;5.710;2023-02-26T08:50:53;4.30;93.30
45339;DHT22;31071;51.478;5.710;2023-02-26T08:53:19;4.20;94.50
45339;DHT22;31071;51.478;5.710;2023-02-26T08:55:48;3.80;93.80
45339;DHT22;31071;51.478;5.710;2023-02-26T08:58:13;3.80;95.30
45339;DHT22;31071;51.478;5.710;2023-02-26T09:00:39;3.90;94.80
45339;DHT22;31071;51.478;5.710;2023-02-26T09:03:04;4.50;94.50
45339;DHT22;31071;51.478;5.710;2023-02-26T09:05:30;6.60;91.70
45339;DHT22;31071;51.478;5.710;2023-02-26T09:07:55;7.90;80.90
45339;DHT22;31071;51.478;5.710;2023-02-26T09:10:20;9.80;74.80
45339;DHT22;31071;51.478;5.710;2023-02-26T09:12:46;11.10;68.10
45339;DHT22;31071;51.478;5.710;2023-02-26T09:15:12;11.00;64.30
45339;DHT22;31071;51.478;5.710;2023-02-26T09:17:38;11.10;63.20
45339;DHT22;31071;51.478;5.710;2023-02-26T09:20:04;11.30;61.50
45339;DHT22;31071;51.478;5.710;2023-02-26T09:22:30;11.60;61.30
45339;DHT22;31071;51.478;5.710;2023-02-26T09:24:55;12.40;58.50
45339;DHT22;31071;51.478;5.710;2023-02-26T09:27:21;12.90;58.60
45339;DHT22;31071;51.478;5.710;2023-02-26T09:29:47;13.70;55.80
45339;DHT22;31071;51.478;5.710;2023-02-26T09:32:12;13.10;57.00
45339;DHT22;31071;51.478;5.710;2023-02-26T09:34:37;13.10;55.40
45339;DHT22;31071;51.478;5.710;2023-02-26T09:37:04;13.30;55.50
45339;DHT22;31071;51.478;5.710;2023-02-26T09:39:29;12.40;55.20
45339;DHT22;31071;51.478;5.710;2023-02-26T09:41:55;12.00;56.20
45339;DHT22;31071;51.478;5.710;2023-02-26T09:44:23;12.00;57.50
45339;DHT22;31071;51.478;5.710;2023-02-26T09:51:47;13.80;53.00
45339;DHT22;31071;51.478;5.710;2023-02-26T09:54:21;13.60;52.80
45339;DHT22;31071;51.478;5.710;2023-02-26T09:56:48;12.30;54.30
45339;DHT22;31071;51.478;5.710;2023-02-26T09:59:14;11.90;55.80
45339;DHT22;31071;51.478;5.710;2023-02-26T10:01:44;12.60;54.40
45339;DHT22;31071;51.478;5.710;2023-02-26T10:12:12;11.50;52.80
45339;DHT22;31071;51.478;5.710;2023-02-26T10:19:52;11.90;53.60
45339;DHT22;31071;51.478;5.710;2023-02-26T10:24:53;12.60;50.40
45339;DHT22;31071;51.478;5.710;2023-02-26T10:27:35;13.50;51.10
45339;DHT22;31071;51.478;5.710;2023-02-26T10:30:04;14.60;49.70
45339;DHT22;31071;51.478;5.710;2023-02-26T10:32:34;13.70;48.20
45339;DHT22;31071;51.478;5.710;2023-02-26T10:48:29;8.90;54.30
45339;DHT22;31071;51.478;5.710;2023-02-26T10:50:57;9.00;54.60
45339;DHT22;31071;51.478;5.710;2023-02-26T10:53:26;10.30;55.40
45339;DHT22;31071;51.478;5.710;2023-02-26T10:55:55;11.10;52.50
45339;DHT22;31071;51.478;5.710;2023-02-26T10:58:24;12.60;51.70
45339;DHT22;31071;51.478;5.710;2023-02-26T11:00:51;13.80;49.10
45339;DHT22;31071;51.478;5.710;2023-02-26T11:03:19;15.10;48.40
45339;DHT22;31071;51.478;5.710;2023-02-26T11:05:45;14.30;46.40
45339;DHT22;31071;51.478;5.710;2023-02-26T11:08:14;14.60;46.30
45339;DHT22;31071;51.478;5.710;2023-02-26T11:11:03;16.20;45.80
45339;DHT22;31071;51.478;5.710;2023-02-26T11:13:28;15.40;45.40
45339;DHT22;31071;51.478;5.710;2023-02-26T11:15:56;15.90;46.20
45339;DHT22;31071;51.478;5.710;2023-02-26T11:18:36;15.10;45.50
45339;DHT22;31071;51.478;5.710;2023-02-26T11:21:04;15.80;41.80
45339;DHT22;31071;51.478;5.710;2023-02-26T11:23:30;14.40;43.90
45339;DHT22;31071;51.478;5.710;2023-02-26T11:26:00;14.60;44.90
45339;DHT22;31071;51.478;5.710;2023-02-26T11:28:33;14.30;44.50
45339;DHT22;31071;51.478;5.710;2023-02-26T11:31:00;14.80;44.40
45339;DHT22;31071;51.478;5.710;2023-02-26T11:35:08;14.20;44.60
45339;DHT22;31071;51.478;5.710;2023-02-26T11:37:37;14.90;45.50
45339;DHT22;31071;51.478;5.710;2023-02-26T11:40:17;15.20;43.40
45339;DHT22;31071;51.478;5.710;2023-02-26T11:42:58;16.00;42.70
45339;DHT22;31071;51.478;5.710;2023-02-26T11:45:24;16.40;43.30
45339;DHT22;31071;51.478;5.710;2023-02-26T11:47:58;17.20;41.00
45339;DHT22;31071;51.478;5.710;2023-02-26T11:50:27;16.90;40.20
45339;DHT22;31071;51.478;5.710;2023-02-26T11:53:04;14.40;41.30
45339;DHT22;31071;51.478;5.710;2023-02-26T11:55:35;12.00;45.80
45339;DHT22;31071;51.478;5.710;2023-02-26T11:58:13;12.00;45.30
45339;DHT22;31071;51.478;5.710;2023-02-26T12:00:40;12.50;45.50
45339;DHT22;31071;51.478;5.710;2023-02-26T12:03:14;12.40;44.70
45339;DHT22;31071;51.478;5.710;2023-02-26T12:05:40;13.70;44.90
45339;DHT22;31071;51.478;5.710;2023-02-26T12:08:19;13.70;45.30
45339;DHT22;31071;51.478;5.710;2023-02-26T12:11:00;15.10;43.10
45339;DHT22;31071;51.478;5.710;2023-02-26T12:16:21;14.20;42.00
45339;DHT22;31071;51.478;5.710;2023-02-26T12:19:04;12.50;45.60
45339;DHT22;31071;51.478;5.710;2023-02-26T12:24:25;9.90;49.90
45339;DHT22;31071;51.478;5.710;2023-02-26T12:27:32;10.70;48.30
45339;DHT22;31071;51.478;5.710;2023-02-26T12:41:52;12.40;44.10
45339;DHT22;31071;51.478;5.710;2023-02-26T13:04:48;12.70;45.20
45339;DHT22;31071;51.478;5.710;2023-02-26T13:07:42;13.00;43.70
45339;DHT22;31071;51.478;5.710;2023-02-26T13:16:29;13.90;42.10
45339;DHT22;31071;51.478;5.710;2023-02-26T13:21:55;13.90;41.10
45339;DHT22;31071;51.478;5.710;2023-02-26T13:26:53;14.10;41.90
45339;DHT22;31071;51.478;5.710;2023-02-26T13:29:36;14.00;42.60
45339;DHT22;31071;51.478;5.710;2023-02-26T13:32:10;13.50;41.60
45339;DHT22;31071;51.478;5.710;2023-02-26T13:34:43;13.70;43.00
45339;DHT22;31071;51.478;5.710;2023-02-26T13:37:37;14.40;40.80
45339;DHT22;31071;51.478;5.710;2023-02-26T13:43:05;14.80;39.70
45339;DHT22;31071;51.478;5.710;2023-02-26T13:45:59;15.10;40.80
45339;DHT22;31071;51.478;5.710;2023-02-26T13:51:28;16.10;38.80
45339;DHT22;31071;51.478;5.710;2023-02-26T13:54:06;14.80;40.80
45339;DHT22;31071;51.478;5.710;2023-02-26T14:01:47;14.60;40.70
45339;DHT22;31071;51.478;5.710;2023-02-26T14:06:51;14.30;41.80
45339;DHT22;31071;51.478;5.710;2023-02-26T14:11:58;13.50;42.30
45339;DHT22;31071;51.478;5.710;2023-02-26T14:14:35;13.70;41.30
45339;DHT22;31071;51.478;5.710;2023-02-26T14:19:41;12.90;42.50
45339;DHT22;31071;51.478;5.710;2023-02-26T14:22:19;13.00;42.90
45339;DHT22;31071;51.478;5.710;2023-02-26T14:27:24;13.40;43.40
45339;DHT22;31071;51.478;5.710;2023-02-26T14:32:29;12.80;43.20
45339;DHT22;31071;51.478;5.710;2023-02-26T14:34:58;12.60;43.40
45339;DHT22;31071;51.478;5.710;2023-02-26T14:37:26;12.80;43.30
45339;DHT22;31071;51.478;5.710;2023-02-26T14:40:04;11.80;44.20
45339;DHT22;31071;51.478;5.710;2023-02-26T14:45:36;10.50;47.10
45339;DHT22;31071;51.478;5.710;2023-02-26T14:48:11;10.70;46.60
45339;DHT22;31071;51.478;5.710;2023-02-26T14:50:49;10.10;48.30
45339;DHT22;31071;51.478;5.710;2023-02-26T14:56:06;9.40;48.30
45339;DHT22;31071;51.478;5.710;2023-02-26T14:58:50;9.20;51.10
45339;DHT22;31071;51.478;5.710;2023-02-26T15:07:21;8.40;52.50
45339;DHT22;31071;51.478;5.710;2023-02-26T15:15:42;8.00;53.80
45339;DHT22;31071;51.478;5.710;2023-02-26T15:21:02;7.90;53.70
45339;DHT22;31071;51.478;5.710;2023-02-26T15:23:41;7.90;52.90
45339;DHT22;31071;51.478;5.710;2023-02-26T15:26:19;8.00;51.90
45339;DHT22;31071;51.478;5.710;2023-02-26T15:28:46;8.20;53.10
45339;DHT22;31071;51.478;5.710;2023-02-26T15:31:12;8.00;53.00
45339;DHT22;31071;51.478;5.710;2023-02-26T15:33:37;8.00;53.90
45339;DHT22;31071;51.478;5.710;2023-02-26T15:36:07;8.10;53.10
45339;DHT22;31071;51.478;5.710;2023-02-26T15:38:48;8.00;53.70
45339;DHT22;31071;51.478;5.710;2023-02-26T15:41:14;8.00;53.80
45339;DHT22;31071;51.478;5.710;2023-02-26T15:43:46;7.90;55.50
45339;DHT22;31071;51.478;5.710;2023-02-26T15:46:13;7.90;54.70
45339;DHT22;31071;51.478;5.710;2023-02-26T15:48:40;7.50;55.10
45339;DHT22;31071;51.478;5.710;2023-02-26T15:51:11;7.30;56.40
45339;DHT22;31071;51.478;5.710;2023-02-26T15:53:46;7.30;56.30
45339;DHT22;31071;51.478;5.710;2023-02-26T15:56:20;7.10;57.10
45339;DHT22;31071;51.478;5.710;2023-02-26T15:59:11;7.00;58.30
45339;DHT22;31071;51.478;5.710;2023-02-26T16:01:39;7.00;58.80
45339;DHT22;31071;51.478;5.710;2023-02-26T16:04:12;6.90;57.70
45339;DHT22;31071;51.478;5.710;2023-02-26T16:06:43;6.60;58.80
45339;DHT22;31071;51.478;5.710;2023-02-26T16:09:17;6.60;58.60
45339;DHT22;31071;51.478;5.710;2023-02-26T16:11:44;6.70;58.60
45339;DHT22;31071;51.478;5.710;2023-02-26T16:14:20;6.70;59.70
45339;DHT22;31071;51.478;5.710;2023-02-26T16:16:49;6.80;59.00
45339;DHT22;31071;51.478;5.710;2023-02-26T16:19:18;6.80;59.40
45339;DHT22;31071;51.478;5.710;2023-02-26T16:21:45;6.60;59.00
45339;DHT22;31071;51.478;5.710;2023-02-26T16:24:15;6.40;58.40
45339;DHT22;31071;51.478;5.710;2023-02-26T16:26:45;6.30;60.70
45339;DHT22;31071;51.478;5.710;2023-02-26T16:29:16;6.40;60.40
45339;DHT22;31071;51.478;5.710;2023-02-26T16:31:42;6.30;61.40
45339;DHT22;31071;51.478;5.710;2023-02-26T16:36:54;6.10;62.20
45339;DHT22;31071;51.478;5.710;2023-02-26T16:39:25;6.00;61.50
45339;DHT22;31071;51.478;5.710;2023-02-26T16:42:07;6.00;64.70
45339;DHT22;31071;51.478;5.710;2023-02-26T16:44:35;5.90;64.40
45339;DHT22;31071;51.478;5.710;2023-02-26T16:47:03;6.20;65.60
45339;DHT22;31071;51.478;5.710;2023-02-26T16:49:34;6.10;62.90
45339;DHT22;31071;51.478;5.710;2023-02-26T16:52:01;6.00;63.50
45339;DHT22;31071;51.478;5.710;2023-02-26T16:54:37;5.80;63.10
45339;DHT22;31071;51.478;5.710;2023-02-26T16:57:06;5.60;64.90
45339;DHT22;31071;51.478;5.710;2023-02-26T16:59:36;5.40;65.10
45339;DHT22;31071;51.478;5.710;2023-02-26T17:02:10;5.40;65.40
45339;DHT22;31071;51.478;5.710;2023-02-26T17:04:37;5.30;65.50
45339;DHT22;31071;51.478;5.710;2023-02-26T17:07:30;5.20;67.60
45339;DHT22;31071;51.478;5.710;2023-02-26T17:09:58;5.00;67.40
45339;DHT22;31071;51.478;5.710;2023-02-26T17:12:44;5.00;67.10
45339;DHT22;31071;51.478;5.710;2023-02-26T17:15:40;4.90;67.60
45339;DHT22;31071;51.478;5.710;2023-02-26T17:18:06;5.20;67.90
45339;DHT22;31071;51.478;5.710;2023-02-26T17:20:34;4.70;69.90
45339;DHT22;31071;51.478;5.710;2023-02-26T17:23:03;4.80;68.10
45339;DHT22;31071;51.478;5.710;2023-02-26T17:25:37;4.70;68.20
45339;DHT22;31071;51.478;5.710;2023-02-26T17:28:04;4.60;70.30
45339;DHT22;31071;51.478;5.710;2023-02-26T17:30:30;4.50;70.20
45339;DHT22;31071;51.478;5.710;2023-02-26T17:32:59;4.50;70.00
45339;DHT22;31071;51.478;5.710;2023-02-26T17:35:25;4.30;70.80
45339;DHT22;31071;51.478;5.710;2023-02-26T17:37:51;4.40;70.50
45339;DHT22;31071;51.478;5.710;2023-02-26T17:42:45;4.30;70.90
45339;DHT22;31071;51.478;5.710;2023-02-26T17:45:11;4.20;71.50
45339;DHT22;31071;51.478;5.710;2023-02-26T17:47:38;4.10;71.80
45339;DHT22;31071;51.478;5.710;2023-02-26T17:52:59;4.20;73.10
45339;DHT22;31071;51.478;5.710;2023-02-26T17:55:24;4.00;72.70
45339;DHT22;31071;51.478;5.710;2023-02-26T17:57:50;3.90;73.70
45339;DHT22;31071;51.478;5.710;2023-02-26T18:00:16;3.90;74.80
45339;DHT22;31071;51.478;5.710;2023-02-26T18:02:42;3.80;74.40
45339;DHT22;31071;51.478;5.710;2023-02-26T18:05:08;3.80;74.40
45339;DHT22;31071;51.478;5.710;2023-02-26T18:07:34;3.70;74.50
45339;DHT22;31071;51.478;5.710;2023-02-26T18:10:00;3.70;75.90
45339;DHT22;31071;51.478;5.710;2023-02-26T18:12:26;3.70;75.40
45339;DHT22;31071;51.478;5.710;2023-02-26T18:14:51;3.60;76.60
45339;DHT22;31071;51.478;5.710;2023-02-26T18:17:22;3.50;76.60
45339;DHT22;31071;51.478;5.710;2023-02-26T18:19:48;3.50;77.20
45339;DHT22;31071;51.478;5.710;2023-02-26T18:22:15;3.40;78.00
45339;DHT22;31071;51.478;5.710;2023-02-26T18:24:43;3.40;77.80
45339;DHT22;31071;51.478;5.710;2023-02-26T18:27:13;3.30;78.00
45339;DHT22;31071;51.478;5.710;2023-02-26T18:29:39;3.30;78.30
45339;DHT22;31071;51.478;5.710;2023-02-26T18:32:05;3.30;78.90
45339;DHT22;31071;51.478;5.710;2023-02-26T18:34:30;3.20;79.30
45339;DHT22;31071;51.478;5.710;2023-02-26T18:36:56;3.20;79.80
45339;DHT22;31071;51.478;5.710;2023-02-26T18:39:21;3.20;79.90
45339;DHT22;31071;51.478;5.710;2023-02-26T18:41:51;3.20;80.00